createdAt,value
2018-06-23T00:09:07.009Z,12
2018-06-23T00:19:21.014Z,11.7
2018-06-23T00:29:36.578Z,11.4
2018-06-23T00:39:51.815Z,11.3
2018-06-23T00:50:06.540Z,11.3
2018-06-23T01:00:20.402Z,11.4
2018-06-23T01:10:34.128Z,11.5
2018-06-23T01:20:49.315Z,11.6
2018-06-23T01:31:03.849Z,11.4
2018-06-23T01:41:19.251Z,11.1
2018-06-23T01:51:33.358Z,11
2018-06-23T02:01:47.396Z,11
2018-06-23T02:12:02.122Z,10.8
2018-06-23T02:22:16.582Z,10.9
2018-06-23T02:32:31.304Z,11
2018-06-23T02:42:45.058Z,11.1
2018-06-23T02:53:00.633Z,11.1
2018-06-23T03:03:15.412Z,11.1
2018-06-23T03:13:30.039Z,11
2018-06-23T03:23:44.241Z,11.1
2018-06-23T03:33:59.703Z,11
2018-06-23T03:44:15.174Z,11.4
2018-06-23T03:54:30.560Z,11.6
2018-06-23T04:04:46.037Z,11.4
2018-06-23T04:15:00.671Z,11.3
2018-06-23T04:25:15.432Z,11.1
2018-06-23T04:35:30.542Z,11.2
2018-06-23T04:45:44.489Z,11.2
2018-06-23T04:56:00.188Z,11.6
2018-06-23T05:06:13.866Z,11.5
2018-06-23T05:16:27.954Z,11.7
2018-06-23T05:26:43.516Z,11.8
2018-06-23T05:36:57.511Z,11.8
2018-06-23T05:47:13.147Z,12
2018-06-23T05:57:26.855Z,12.6
2018-06-23T06:07:41.252Z,12.6
2018-06-23T06:17:55.653Z,12.8
2018-06-23T06:28:10.907Z,14
2018-06-23T06:38:24.722Z,14.8
2018-06-23T06:48:38.826Z,14.2
2018-06-23T06:58:53.578Z,14.4
2018-06-23T07:09:09.189Z,14.1
2018-06-23T07:19:23.892Z,14.8
2018-06-23T07:29:37.939Z,15.6
2018-06-23T07:39:53.710Z,17.3
2018-06-23T07:50:08.871Z,16.2
2018-06-23T08:00:22.859Z,15.9
2018-06-23T08:10:38.458Z,17.9
2018-06-23T08:20:52.545Z,17.9
2018-06-23T08:31:07.091Z,18.9
2018-06-23T08:41:22.606Z,17.6
2018-06-23T08:51:36.630Z,19
2018-06-23T09:01:51.759Z,17.7
2018-06-23T09:12:06.641Z,18.7
2018-06-23T09:22:21.863Z,18
2018-06-23T09:32:36.824Z,19.4
2018-06-23T09:42:50.846Z,17
2018-06-23T09:53:06.051Z,18
2018-06-23T10:03:20.947Z,18.5
2018-06-23T10:13:34.995Z,18.1
2018-06-23T10:23:49.403Z,17.7
2018-06-23T10:34:04.806Z,18.8
2018-06-23T10:44:19.553Z,18.9
2018-06-23T10:54:33.761Z,20.2
2018-06-23T11:04:48.254Z,19.9
2018-06-23T11:15:04.181Z,18.7
2018-06-23T11:25:19.882Z,19.3
2018-06-23T11:35:34.035Z,19
2018-06-23T11:45:48.822Z,19.2
2018-06-23T11:56:03.034Z,18.2
2018-06-23T12:06:18.147Z,19.2
2018-06-23T12:16:34.016Z,21.1
2018-06-23T12:26:49.347Z,20
2018-06-23T12:37:04.785Z,20.9
2018-06-23T12:47:20.589Z,21.3
2018-06-23T12:57:35.716Z,20.9
2018-06-23T13:07:50.559Z,21.2
2018-06-23T13:18:06.077Z,19.8
2018-06-23T13:28:21.711Z,20.4
2018-06-23T13:38:36.681Z,19.7
2018-06-23T13:48:50.534Z,20.2
2018-06-23T13:59:06.180Z,21
2018-06-23T14:09:21.823Z,21.3
2018-06-23T14:19:37.366Z,21.3
2018-06-23T14:29:53.354Z,22.8
2018-06-23T14:40:07.178Z,20.5
2018-06-23T14:50:22.556Z,21.5
2018-06-23T15:00:37.876Z,21.1
2018-06-23T15:10:52.952Z,20.7
2018-06-23T15:21:08.599Z,21.8
2018-06-23T15:31:24.134Z,19.9
2018-06-23T15:41:38.899Z,20.2
2018-06-23T15:51:53.775Z,21.7
2018-06-23T16:02:08.197Z,21.4
2018-06-23T16:12:22.408Z,21.2
2018-06-23T16:22:36.957Z,21
2018-06-23T16:32:51.401Z,19.1
2018-06-23T16:43:06.460Z,20.2
2018-06-23T16:53:21.079Z,20.6
2018-06-23T17:03:36.361Z,20.7
2018-06-23T17:13:51.615Z,20.9
2018-06-23T17:24:07.311Z,20
2018-06-23T17:34:22.267Z,18.8
2018-06-23T17:44:37.275Z,18.2
2018-06-23T17:54:52.976Z,18.9
2018-06-23T18:05:06.956Z,17.9
2018-06-23T18:15:21.885Z,17.4
2018-06-23T18:25:37.016Z,16.8
2018-06-23T18:35:51.057Z,16.4
2018-06-23T18:46:05.144Z,16.8
2018-06-23T18:56:20.620Z,16.8
2018-06-23T19:06:35.382Z,16.8
2018-06-23T19:16:49.198Z,16.5
2018-06-23T19:27:03.858Z,16.1
2018-06-23T19:37:18.728Z,15.8
2018-06-23T19:47:33.278Z,15.5
2018-06-23T19:57:48.002Z,14.9
2018-06-23T20:08:03.445Z,15.1
2018-06-23T20:18:17.468Z,14.7
2018-06-23T20:28:32.326Z,14.1
2018-06-23T20:38:46.105Z,13.6
2018-06-23T20:49:01.583Z,13
2018-06-23T20:59:16.998Z,12.4
2018-06-23T21:09:30.762Z,12.6
2018-06-23T21:19:45.284Z,12.3
2018-06-23T21:29:59.374Z,12
2018-06-23T21:40:13.946Z,12.3
2018-06-23T21:50:28.153Z,12.5
2018-06-23T22:00:42.993Z,12.3
2018-06-23T22:10:57.105Z,11.9
2018-06-23T22:21:12.593Z,11.6
2018-06-23T22:31:26.926Z,11.4
2018-06-23T22:41:41.110Z,11.1
2018-06-23T22:51:54.964Z,11.2
2018-06-23T23:02:09.432Z,11.8
2018-06-23T23:12:24.087Z,12.3
2018-06-23T23:22:38.947Z,12.6
2018-06-23T23:32:53.766Z,12.5
2018-06-23T23:43:09.439Z,12.6
2018-06-23T23:53:23.600Z,12.7
